Time;durP1;ratioP1;P1;durP2;ratioP2;P2;SDS_P1;SDS_P2;PMS_P1;PMS_P2;Temp;Humidity;BMP_temperature;BMP_pressure;BME280_temperature;BME280_humidity;BME280_pressure;Samples;Min_cycle;Max_cycle;Signal;HPM_P1;HPM_P2
2023/09/01 05:17:08;;;;;;;;;;;;;;;;;;;;;
2023/09/01 05:19:34;;;;;;;;;;;;;;;7.12;100.00;99352.75;4976266;28;19922;-86
2023/09/01 05:21:59;;;;;;;;;;;;;;;7.05;100.00;99352.94;4976523;28;20021;-86
2023/09/01 05:24:24;;;;;;;;;;;;;;;7.09;100.00;99353.69;4976430;28;19922;-86
2023/09/01 05:26:50;;;;;;;;;;;;;;;7.09;100.00;99353.69;4976542;28;19950;-87
2023/09/01 05:29:15;;;;;;;;;;;;;;;7.07;100.00;99347.63;4974926;28;19977;-87
2023/09/01 05:31:40;;;;;;;;;;;;;;;7.09;100.00;99353.69;4976578;28;19929;-86
2023/09/01 05:34:06;;;;;;;;;;;;;;;7.06;100.00;99352.03;4976345;28;19918;-86
2023/09/01 05:36:32;;;;;;;;;;;;;;;7.16;100.00;99351.69;4975504;28;19961;-84
2023/09/01 05:38:57;;;;;;;;;;;;;;;7.18;100.00;99357.75;4976247;28;19966;-85
2023/09/01 05:41:22;;;;;;;;;;;;;;;7.22;100.00;99359.38;4976211;28;19918;-86
2023/09/01 05:43:47;;;;;;;;;;;;;;;7.12;100.00;99358.00;4974874;28;19918;-86
2023/09/01 05:46:13;;;;;;;;;;;;;;;7.13;100.00;99354.44;4976148;28;20006;-84
2023/09/01 05:48:38;;;;;;;;;;;;;;;7.17;100.00;99362.19;4974780;28;19964;-86
2023/09/01 05:51:04;;;;;;;;;;;;;;;7.21;100.00;99363.81;4976154;28;19937;-86
2023/09/01 05:53:29;;;;;;;;;;;;;;;7.19;100.00;99362.13;4976143;28;19918;-88
2023/09/01 05:55:54;;;;;;;;;;;;;;;7.13;100.00;99360.56;4976044;28;19922;-84
2023/09/01 05:58:20;;;;;;;;;;;;;;;7.18;100.00;99363.03;4974621;28;19974;-84
2023/09/01 06:00:45;;;;;;;;;;;;;;;7.24;100.00;99366.34;4975909;28;20536;-84
2023/09/01 06:03:10;;;;;;;;;;;;;;;7.13;100.00;99360.56;4975816;28;20080;-85
2023/09/01 06:05:35;;;;;;;;;;;;;;;7.19;100.00;99367.41;4975745;28;20003;-85
2023/09/01 06:08:01;;;;;;;;;;;;;;;7.20;100.00;99363.88;4974364;28;19977;-87
2023/09/01 06:10:26;;;;;;;;;;;;;;;7.19;100.00;99364.75;4974482;28;20296;-86
2023/09/01 06:12:52;;;;;;;;;;;;;;;7.25;100.00;99364.56;4974318;28;19918;-85
2023/09/01 06:15:17;;;;;;;;;;;;;;;7.26;100.00;99366.28;4974114;28;19925;-84
2023/09/01 06:17:42;;;;;;;;;;;;;;;7.22;100.00;99367.28;4975476;28;20005;-86
2023/09/01 06:20:08;;;;;;;;;;;;;;;7.28;100.00;99369.72;4975419;28;19929;-85
2023/09/01 06:22:33;;;;;;;;;;;;;;;7.25;100.00;99372.47;4975212;28;19934;-84
2023/09/01 06:24:58;;;;;;;;;;;;;;;7.28;100.00;99374.97;4975084;28;20317;-84
2023/09/01 06:27:24;;;;;;;;;;;;;;;7.25;100.00;99370.66;4975010;28;19918;-83
2023/09/01 06:29:49;;;;;;;;;;;;;;;7.25;100.00;99375.94;4973788;28;20288;-84
2023/09/01 06:32:14;;;;;;;;;;;;;;;7.23;100.00;99375.16;4973900;28;19948;-89
2023/09/01 06:34:40;;;;;;;;;;;;;;;7.23;100.00;99376.94;4975172;28;19925;-84
2023/09/01 06:37:05;;;;;;;;;;;;;;;7.33;100.00;99372.19;4975092;28;19918;-85
2023/09/01 06:39:30;;;;;;;;;;;;;;;7.29;100.00;99376.69;4975003;28;19972;-85
2023/09/01 06:41:56;;;;;;;;;;;;;;;7.32;100.00;99376.56;4975183;28;19965;-84
2023/09/01 06:44:22;;;;;;;;;;;;;;;7.31;100.00;99374.88;4973627;28;19961;-85
2023/09/01 06:46:48;;;;;;;;;;;;;;;7.33;100.00;99367.75;4975184;28;19919;-87
2023/09/01 06:49:14;;;;;;;;;;;;;;;7.33;100.00;99375.66;4989934;28;20324;-84
2023/09/01 06:51:40;;;;;;;;;;;;;;;7.32;100.00;99387.13;4973469;28;20025;-86
2023/09/01 06:54:05;;;;;;;;;;;;;;;7.27;100.00;99378.53;4974875;28;20016;-86
2023/09/01 06:56:30;;;;;;;;;;;;;;;7.23;100.00;99387.47;4973522;28;19945;-85
2023/09/01 07:45:32;;;;;;;;;;;;;;;7.28;100.00;99385.53;4990468;28;20013;-84
2023/09/01 07:47:57;;;;;;;;;;;;;;;7.27;100.00;99391.69;4975871;28;20012;-85
2023/09/01 07:50:23;;;;;;;;;;;;;;;7.20;100.00;99385.78;4993340;28;19922;-81
2023/09/01 07:52:49;;;;;;;;;;;;;;;7.24;100.00;99384.78;4993102;28;19918;-81
2023/09/01 07:55:14;;;;;;;;;;;;;;;7.23;100.00;99382.19;4993402;28;19922;-81
2023/09/01 07:57:39;;;;;;;;;;;;;;;7.27;100.00;99383.78;4991526;28;19918;-82
2023/09/01 08:00:07;;;;;;;;;;;;;;;7.24;100.00;99389.16;4993138;28;19976;-82
2023/09/01 08:02:32;;;;;;;;;;;;;;;7.25;100.00;99386.47;4992323;28;19922;-83
2023/09/01 08:04:58;;;;;;;;;;;;;;;7.24;100.00;99387.41;4992858;28;19925;-82
2023/09/01 08:07:23;;;;;;;;;;;;;;;7.29;100.00;99387.22;4993079;28;19962;-81
2023/09/01 08:09:48;;;;;;;;;;;;;;;7.27;100.00;99394.34;4992805;28;19941;-81
2023/09/01 08:12:13;;;;;;;;;;;;;;;7.37;100.00;99395.75;4991743;28;19926;-82
2023/09/01 08:14:39;;;;;;;;;;;;;;;7.35;100.00;99394.06;4992793;28;19917;-81
2023/09/01 08:17:04;;;;;;;;;;;;;;;7.37;100.00;99394.88;4992815;28;19964;-81
2023/09/01 08:19:29;;;;;;;;;;;;;;;7.41;100.00;99402.59;4975374;28;19953;-81
2023/09/01 08:21:56;;;;;;;;;;;;;;;7.45;100.00;99400.72;4975335;28;19929;-81
2023/09/01 08:24:21;;;;;;;;;;;;;;;7.40;100.00;99403.53;4975264;28;19964;-81
2023/09/01 08:26:46;;;;;;;;;;;;;;;7.42;100.00;99406.97;4992754;28;19925;-80
2023/09/01 08:29:13;;;;;;;;;;;;;;;7.41;100.00;99410.50;4990949;28;19921;-81
2023/09/01 08:31:38;;;;;;;;;;;;;;;7.43;100.00;99405.19;4992636;28;19923;-81
2023/09/01 08:34:10;;;;;;;;;;;;;;;7.52;100.00;99409.28;4992720;28;19968;-82
2023/09/01 08:36:35;;;;;;;;;;;;;;;7.54;100.00;99410.94;4992601;28;19965;-83
2023/09/01 08:39:00;;;;;;;;;;;;;;;7.49;100.00;99410.25;4975087;28;19968;-84
2023/09/01 08:41:26;;;;;;;;;;;;;;;7.42;100.00;99409.63;4992620;28;19964;-84
2023/09/01 08:43:54;;;;;;;;;;;;;;;7.46;100.00;99416.47;4989880;28;19942;-81
2023/09/01 08:46:21;;;;;;;;;;;;;;;7.51;100.00;99418.09;4973893;28;20008;-81
2023/09/01 08:48:46;;;;;;;;;;;;;;;7.49;100.00;99426.06;4990944;28;19964;-82
2023/09/01 08:51:14;;;;;;;;;;;;;;;7.58;100.00;99417.81;4977605;28;19926;-82
2023/09/01 08:53:40;;;;;;;;;;;;;;;7.51;100.00;99418.09;4991733;28;19920;-81
2023/09/01 08:56:06;;;;;;;;;;;;;;;7.38;100.00;99413.25;4976964;28;19961;-84
2023/09/01 08:58:31;;;;;;;;;;;;;;;7.52;100.00;99411.91;4989615;28;19929;-81
2023/09/01 09:00:56;;;;;;;;;;;;;;;7.51;100.00;99411.03;4975603;28;19972;-82
2023/09/01 09:03:21;;;;;;;;;;;;;;;7.41;100.00;99423.69;4975696;28;19928;-82
2023/09/01 09:05:47;;;;;;;;;;;;;;;7.51;100.00;99418.94;4991200;28;19914;-83
2023/09/01 09:08:12;;;;;;;;;;;;;;;7.54;100.00;99420.63;4990729;28;20013;-81
2023/09/01 09:10:39;;;;;;;;;;;;;;;7.63;100.00;99429.06;4991549;28;20357;-81
2023/09/01 09:13:19;;;;;;;;;;;;;;;7.60;100.00;99423.03;4989359;28;19921;-81
2023/09/01 09:15:44;;;;;;;;;;;;;;;7.52;100.00;99417.19;4990546;28;20383;-81
2023/09/01 09:18:09;;;;;;;;;;;;;;;7.56;100.00;99416.16;4991386;28;20470;-81
2023/09/01 09:20:36;;;;;;;;;;;;;;;7.53;100.00;99421.53;4991024;28;20365;-82
2023/09/01 09:23:02;;;;;;;;;;;;;;;7.56;100.00;99424.06;4977410;28;19918;-83
2023/09/01 09:25:29;;;;;;;;;;;;;;;7.58;100.00;99424.88;4993684;28;19925;-81
2023/09/01 09:27:56;;;;;;;;;;;;;;;7.52;100.00;99433.00;4973691;28;19919;-84
2023/09/01 09:30:22;;;;;;;;;;;;;;;7.63;100.00;99439.59;4990580;28;20317;-81
2023/09/01 09:32:59;;;;;;;;;;;;;;;7.62;100.00;99437.88;4977036;28;19918;-81
2023/09/01 09:35:26;;;;;;;;;;;;;;;7.64;100.00;99437.81;4976033;28;19933;-82
2023/09/01 09:37:56;;;;;;;;;;;;;;;7.66;100.00;99446.56;4976135;28;20364;-84
2023/09/01 09:40:21;;;;;;;;;;;;;;;7.62;100.00;99437.03;4975838;28;19952;-81
2023/09/01 09:42:46;;;;;;;;;;;;;;;7.53;100.00;99442.63;4988801;28;20435;-81
2023/09/01 09:45:23;;;;;;;;;;;;;;;7.63;100.00;99442.25;4990543;28;20008;-81
2023/09/01 09:47:49;;;;;;;;;;;;;;;7.64;100.00;99445.72;4966276;28;19918;-81
2023/09/01 09:50:16;;;;;;;;;;;;;;;7.58;100.00;99451.25;4967796;28;20013;-82
2023/09/01 09:52:42;;;;;;;;;;;;;;;7.62;100.00;99452.84;4986836;28;20008;-82
2023/09/01 09:55:10;;;;;;;;;;;;;;;7.55;100.00;99459.28;4976939;28;19972;-81
2023/09/01 09:57:37;;;;;;;;;;;;;;;7.52;100.00;99446.19;4988508;28;20380;-84
2023/09/01 10:00:08;;;;;;;;;;;;;;;7.59;100.00;99464.34;4992563;28;19953;-81
2023/09/01 10:02:40;;;;;;;;;;;;;;;7.62;100.00;99456.34;4977221;28;19953;-81
2023/09/01 10:05:06;;;;;;;;;;;;;;;7.66;100.00;99467.66;4975724;28;19922;-81
2023/09/01 10:07:33;;;;;;;;;;;;;;;7.64;100.00;99458.91;4989302;28;20008;-84
2023/09/01 10:09:59;;;;;;;;;;;;;;;7.67;100.00;99461.44;4992421;28;19944;-83
2023/09/01 10:12:26;;;;;;;;;;;;;;;7.67;100.00;99456.19;4988231;28;20012;-82
2023/09/01 10:14:52;;;;;;;;;;;;;;;7.62;100.00;99464.25;4989883;28;19927;-81
2023/09/01 10:17:19;;;;;;;;;;;;;;;7.62;100.00;99458.97;4989587;28;20045;-82
2023/09/01 10:19:44;;;;;;;;;;;;;;;7.65;100.00;99468.56;4989504;28;20012;-83
2023/09/01 10:22:09;;;;;;;;;;;;;;;7.66;100.00;99470.28;4988959;28;20056;-81
2023/09/01 10:24:35;;;;;;;;;;;;;;;7.62;100.00;99466.03;4989259;28;19922;-80
2023/09/01 10:27:09;;;;;;;;;;;;;;;7.59;100.00;99458.22;4989495;28;19922;-84
2023/09/01 10:29:34;;;;;;;;;;;;;;;7.56;100.00;99467.13;4988971;28;19929;-80
2023/09/01 10:32:19;;;;;;;;;;;;;;;7.68;100.00;99481.63;4989566;28;19922;-81
2023/09/01 10:34:53;;;;;;;;;;;;;;;7.70;100.00;99466.63;4989423;28;19914;-81
2023/09/01 10:37:30;;;;;;;;;;;;;;;7.63;100.00;99470.41;4989658;28;20265;-82
2023/09/01 10:39:55;;;;;;;;;;;;;;;7.60;100.00;99476.63;4989155;28;20277;-82
2023/09/01 10:42:40;;;;;;;;;;;;;;;7.59;100.00;99466.13;4982924;28;19934;-83
2023/09/01 10:45:08;;;;;;;;;;;;;;;7.63;100.00;99473.88;4994548;28;20384;-81
2023/09/01 10:47:38;;;;;;;;;;;;;;;7.58;100.00;99469.72;4994595;28;19918;-80
2023/09/01 10:50:04;;;;;;;;;;;;;;;7.59;100.00;99476.69;4988915;28;19964;-85
2023/09/01 10:52:31;;;;;;;;;;;;;;;7.58;100.00;99482.91;4984779;28;19918;-84
2023/09/01 10:54:59;;;;;;;;;;;;;;;7.54;100.00;99474.22;4983518;28;20059;-82
2023/09/01 10:57:37;;;;;;;;;;;;;;;7.63;100.00;99475.69;4983426;28;19918;-81
2023/09/01 11:00:22;;;;;;;;;;;;;;;7.59;100.00;99474.06;4989139;28;19944;-81
2023/09/01 11:02:47;;;;;;;;;;;;;;;7.62;100.00;99476.59;4973900;28;19929;-81
2023/09/01 11:05:33;;;;;;;;;;;;;;;7.58;100.00;99475.84;4988929;28;20293;-80
2023/09/01 11:08:15;;;;;;;;;;;;;;;7.57;100.00;99471.47;4975524;28;19928;-81
2023/09/01 11:10:41;;;;;;;;;;;;;;;7.62;100.00;99479.22;4989165;28;19976;-87
2023/09/01 11:13:16;;;;;;;;;;;;;;;7.68;100.00;99472.88;4987655;28;19918;-82
2023/09/01 11:15:47;;;;;;;;;;;;;;;7.65;100.00;99473.84;4989414;28;20000;-84
2023/09/01 11:18:19;;;;;;;;;;;;;;;7.68;100.00;99478.16;4988845;28;19918;-84
2023/09/01 11:20:46;;;;;;;;;;;;;;;7.67;100.00;99472.00;4989087;28;19918;-82
2023/09/01 11:23:11;;;;;;;;;;;;;;;7.68;100.00;99479.00;4989444;28;19957;-84
2023/09/01 11:25:36;;;;;;;;;;;;;;;7.62;100.00;99473.94;4989793;28;20340;-81
2023/09/01 11:28:02;;;;;;;;;;;;;;;7.67;100.00;99479.06;4987417;28;20415;-81
2023/09/01 11:30:27;;;;;;;;;;;;;;;7.70;100.00;99476.31;4988574;28;19961;-80
2023/09/01 11:32:53;;;;;;;;;;;;;;;7.64;100.00;99482.66;4988594;28;19918;-81
2023/09/01 11:35:26;;;;;;;;;;;;;;;7.66;100.00;99485.22;4974421;28;19925;-81
2023/09/01 11:37:51;;;;;;;;;;;;;;;7.63;100.00;99488.88;4989244;28;20008;-81
2023/09/01 11:40:16;;;;;;;;;;;;;;;7.69;100.00;99495.69;4988994;28;20056;-80
2023/09/01 11:42:43;;;;;;;;;;;;;;;7.71;100.00;99497.34;4987262;28;20381;-80
2023/09/01 11:45:09;;;;;;;;;;;;;;;7.67;100.00;99498.38;4988489;28;19929;-84
2023/09/01 11:47:34;;;;;;;;;;;;;;;7.67;100.00;99495.72;4973083;28;19922;-81
2023/09/01 11:50:00;;;;;;;;;;;;;;;7.58;100.00;99498.72;4988465;28;20386;-82
2023/09/01 11:52:25;;;;;;;;;;;;;;;7.68;100.00;99500.09;4974121;28;19957;-81
2023/09/01 11:54:52;;;;;;;;;;;;;;;7.65;100.00;99494.94;4988970;28;19922;-81
2023/09/01 11:57:17;;;;;;;;;;;;;;;7.61;100.00;99490.66;4987275;28;19944;-80
2023/09/01 11:59:46;;;;;;;;;;;;;;;7.70;100.00;99490.34;4987917;28;20428;-81
2023/09/01 12:02:18;;;;;;;;;;;;;;;7.69;100.00;99501.84;4988638;28;19929;-82
2023/09/01 12:04:46;;;;;;;;;;;;;;;7.70;100.00;99498.25;4988722;28;20020;-81
2023/09/01 12:07:21;;;;;;;;;;;;;;;7.76;100.00;99497.19;4990984;28;19921;-81
2023/09/01 12:09:46;;;;;;;;;;;;;;;7.69;100.00;99496.56;4988240;28;20301;-82
2023/09/01 12:12:11;;;;;;;;;;;;;;;7.66;100.00;99495.78;4974657;28;19940;-82
2023/09/01 12:14:37;;;;;;;;;;;;;;;7.64;100.00;99493.19;4986975;28;20358;-80
2023/09/01 12:17:14;;;;;;;;;;;;;;;7.65;100.00;99508.13;4988541;28;20461;-81
2023/09/01 12:19:46;;;;;;;;;;;;;;;7.67;100.00;99497.53;4988658;28;19918;-85
2023/09/01 12:22:12;;;;;;;;;;;;;;;7.60;100.00;99502.16;4989115;28;20444;-81
2023/09/01 12:24:38;;;;;;;;;;;;;;;7.60;100.00;99496.88;4988377;28;19925;-87
2023/09/01 12:27:03;;;;;;;;;;;;;;;7.62;100.00;99495.03;4973905;28;19922;-82
2023/09/01 12:29:28;;;;;;;;;;;;;;;7.54;100.00;99503.22;4986823;28;19922;-82
2023/09/01 12:31:54;;;;;;;;;;;;;;;7.72;100.00;99506.13;4974329;28;19922;-84
2023/09/01 12:34:19;;;;;;;;;;;;;;;7.76;100.00;99497.19;4972845;28;20361;-81
2023/09/01 12:36:44;;;;;;;;;;;;;;;7.68;100.00;99505.38;4988574;28;20391;-80
2023/09/01 12:39:10;;;;;;;;;;;;;;;7.73;100.00;99492.03;4987746;28;19949;-83
2023/09/01 12:41:35;;;;;;;;;;;;;;;7.69;100.00;99493.91;4974256;28;20065;-84
2023/09/01 12:44:00;;;;;;;;;;;;;;;7.75;100.00;99495.47;4986919;28;19964;-84
2023/09/01 12:46:25;;;;;;;;;;;;;;;7.70;100.00;99497.41;4989235;28;19922;-80
2023/09/01 12:48:50;;;;;;;;;;;;;;;7.67;100.00;99493.09;4988004;28;19925;-81
2023/09/01 12:51:16;;;;;;;;;;;;;;;7.76;100.00;99495.41;4987891;28;20377;-81
2023/09/01 12:53:41;;;;;;;;;;;;;;;7.75;100.00;99495.47;4987684;28;20381;-84
2023/09/01 12:56:10;;;;;;;;;;;;;;;7.76;100.00;99497.19;4988026;28;19929;-84
2023/09/01 12:58:35;;;;;;;;;;;;;;;7.70;100.00;99500.91;4986348;28;20081;-81
2023/09/01 13:01:03;;;;;;;;;;;;;;;7.71;100.00;99494.72;4988275;28;20397;-87
2023/09/01 13:03:28;;;;;;;;;;;;;;;7.71;100.00;99499.13;4973881;28;19965;-83
2023/09/01 13:05:54;;;;;;;;;;;;;;;7.70;100.00;99500.03;4988131;28;20319;-86
2023/09/01 13:08:19;;;;;;;;;;;;;;;7.72;100.00;99500.84;4987407;28;19957;-89
2023/09/01 13:10:45;;;;;;;;;;;;;;;7.63;100.00;99494.13;4987824;28;19918;-83
2023/09/01 13:13:10;;;;;;;;;;;;;;;7.70;100.00;99492.97;4986897;28;20435;-83
2023/09/01 13:15:35;;;;;;;;;;;;;;;7.73;100.00;99497.31;4988083;28;19925;-82
2023/09/01 13:18:00;;;;;;;;;;;;;;;7.71;100.00;99492.09;4970617;28;19996;-85
2023/09/01 13:20:26;;;;;;;;;;;;;;;7.67;100.00;99490.44;4987701;28;20369;-83
2023/09/01 13:22:51;;;;;;;;;;;;;;;7.64;100.00;99487.94;4987544;28;19917;-81
2023/09/01 13:25:16;;;;;;;;;;;;;;;7.70;100.00;99492.13;4973633;28;19941;-84
2023/09/01 13:27:42;;;;;;;;;;;;;;;7.69;100.00;99493.91;4986365;28;20424;-86
2023/09/01 13:30:07;;;;;;;;;;;;;;;7.73;100.00;99492.88;4986957;28;20016;-86
2023/09/01 13:32:32;;;;;;;;;;;;;;;7.71;100.00;99497.34;4972019;28;19918;-82
2023/09/01 13:34:58;;;;;;;;;;;;;;;7.72;100.00;99490.28;4991303;28;19922;-84
2023/09/01 13:37:24;;;;;;;;;;;;;;;7.71;100.00;99491.22;4975746;28;20445;-82
2023/09/01 13:39:55;;;;;;;;;;;;;;;7.69;100.00;99491.28;4991198;28;20384;-83
2023/09/01 13:42:20;;;;;;;;;;;;;;;7.70;100.00;99492.13;4973325;28;19921;-83
2023/09/01 13:44:45;;;;;;;;;;;;;;;7.77;100.00;99486.59;4974649;28;20270;-83
2023/09/01 13:47:10;;;;;;;;;;;;;;;7.63;100.00;99479.16;4990754;28;19918;-84
2023/09/01 13:49:36;;;;;;;;;;;;;;;7.71;100.00;99480.69;4991188;28;20012;-83
2023/09/01 13:52:01;;;;;;;;;;;;;;;7.67;100.00;99477.28;4990999;28;19918;-83
2023/09/01 13:54:26;;;;;;;;;;;;;;;7.67;100.00;99479.06;5005965;28;19956;-84
2023/09/01 13:56:52;;;;;;;;;;;;;;;7.78;100.00;99480.38;4991001;28;20383;-84
2023/09/01 13:59:17;;;;;;;;;;;;;;;7.79;100.00;99479.47;4989410;28;20020;-82
2023/09/01 14:01:42;;;;;;;;;;;;;;;7.68;100.00;99476.38;5005647;28;19922;-83
2023/09/01 14:04:07;;;;;;;;;;;;;;;7.69;100.00;99472.81;4975290;28;19918;-83
2023/09/01 14:06:33;;;;;;;;;;;;;;;7.69;100.00;99472.81;4990902;28;20266;-81
2023/09/01 14:09:00;;;;;;;;;;;;;;;7.69;100.00;99470.19;4975493;28;19996;-82
2023/09/01 14:11:25;;;;;;;;;;;;;;;7.71;100.00;99475.41;4989984;28;20385;-82
2023/09/01 14:13:50;;;;;;;;;;;;;;;7.80;100.00;99475.06;4975572;28;19976;-83
2023/09/01 14:16:15;;;;;;;;;;;;;;;7.76;100.00;99470.81;4981703;28;20280;-82
2023/09/01 14:18:44;;;;;;;;;;;;;;;7.78;100.00;99469.81;4974645;28;19941;-81
2023/09/01 14:21:09;;;;;;;;;;;;;;;7.82;100.00;99471.44;4976684;28;19917;-83
2023/09/01 14:23:34;;;;;;;;;;;;;;;7.87;100.00;99473.06;4973479;28;19929;-83
2023/09/01 14:25:59;;;;;;;;;;;;;;;7.80;100.00;99470.66;4990066;28;20377;-82
2023/09/01 14:28:25;;;;;;;;;;;;;;;7.79;100.00;99479.47;4988653;28;20307;-83
2023/09/01 14:30:50;;;;;;;;;;;;;;;7.81;100.00;99468.88;4990071;28;20012;-83
2023/09/01 14:33:15;;;;;;;;;;;;;;;7.85;100.00;99473.13;4990226;28;20362;-86
2023/09/01 14:35:41;;;;;;;;;;;;;;;7.82;100.00;99466.19;4989257;28;20485;-85
2023/09/01 14:38:07;;;;;;;;;;;;;;;7.80;100.00;99465.38;4975564;28;19949;-84
2023/09/01 14:40:32;;;;;;;;;;;;;;;7.81;100.00;99464.44;4990017;28;19922;-84
2023/09/01 14:42:58;;;;;;;;;;;;;;;7.72;100.00;99464.81;4972844;28;20434;-83
2023/09/01 14:45:23;;;;;;;;;;;;;;;7.78;100.00;99461.91;4988910;28;19925;-83
2023/09/01 14:47:48;;;;;;;;;;;;;;;7.76;100.00;99466.41;4980903;28;20004;-82
2023/09/01 14:50:23;;;;;;;;;;;;;;;7.79;100.00;99465.44;4975303;28;19929;-82
2023/09/01 14:52:49;;;;;;;;;;;;;;;7.73;100.00;99473.56;4992034;28;19918;-83
2023/09/01 14:55:14;;;;;;;;;;;;;;;7.84;100.00;99473.19;4989379;28;19976;-82
2023/09/01 14:57:40;;;;;;;;;;;;;;;7.79;100.00;99471.56;4988319;28;20474;-82
2023/09/01 15:00:05;;;;;;;;;;;;;;;7.74;100.00;99478.78;4989703;28;19921;-80
2023/09/01 15:02:31;;;;;;;;;;;;;;;7.73;100.00;99474.41;4989734;28;19922;-80
2023/09/01 15:04:56;;;;;;;;;;;;;;;7.72;100.00;99478.00;4990074;28;20329;-80
2023/09/01 15:07:23;;;;;;;;;;;;;;;7.76;100.00;99476.94;4988932;28;19923;-83
2023/09/01 15:09:48;;;;;;;;;;;;;;;7.84;100.00;99481.94;4973261;28;20401;-81
2023/09/01 15:12:13;;;;;;;;;;;;;;;7.84;100.00;99489.00;4989230;28;19954;-84
2023/09/01 15:14:39;;;;;;;;;;;;;;;7.84;100.00;99484.59;4988349;28;20246;-84
2023/09/01 15:17:04;;;;;;;;;;;;;;;7.77;100.00;99480.44;4973848;28;20304;-81
2023/09/01 15:19:29;;;;;;;;;;;;;;;7.73;100.00;99484.97;4989674;28;19925;-80
2023/09/01 15:21:56;;;;;;;;;;;;;;;7.79;100.00;99483.91;4989059;28;19984;-81
2023/09/01 15:24:21;;;;;;;;;;;;;;;7.86;100.00;99495.94;4988150;28;20033;-80
2023/09/01 15:26:47;;;;;;;;;;;;;;;7.92;100.00;99494.84;4989415;28;20012;-87
2023/09/01 15:29:12;;;;;;;;;;;;;;;7.87;100.00;99489.75;4988329;28;19945;-80
2023/09/01 15:31:37;;;;;;;;;;;;;;;7.86;100.00;99489.81;4988927;28;20400;-85
2023/09/01 15:34:02;;;;;;;;;;;;;;;7.84;100.00;99491.66;4973114;28;19918;-82
2023/09/01 15:36:28;;;;;;;;;;;;;;;7.84;100.00;99494.28;4988987;28;19922;-82
2023/09/01 15:38:53;;;;;;;;;;;;;;;7.77;100.00;99496.25;4988841;28;19925;-82
2023/09/01 15:41:18;;;;;;;;;;;;;;;7.77;100.00;99493.63;5004058;28;20284;-81
2023/09/01 15:43:43;;;;;;;;;;;;;;;7.77;100.00;99489.22;4987485;28;20015;-79
2023/09/01 15:46:09;;;;;;;;;;;;;;;7.89;100.00;99484.41;4988963;28;19922;-79
2023/09/01 15:48:35;;;;;;;;;;;;;;;7.78;100.00;99485.66;4971697;28;19917;-83
2023/09/01 15:51:01;;;;;;;;;;;;;;;7.81;100.00;99485.53;4988407;28;19925;-84
2023/09/01 15:53:28;;;;;;;;;;;;;;;7.79;100.00;99482.09;4988833;28;19914;-83
2023/09/01 15:55:53;;;;;;;;;;;;;;;7.81;100.00;99488.19;4972729;28;19968;-82
2023/09/01 15:58:19;;;;;;;;;;;;;;;7.75;100.00;99487.53;4987096;28;19921;-81
2023/09/01 16:00:44;;;;;;;;;;;;;;;7.80;100.00;99480.31;4988392;28;19976;-82
2023/09/01 16:03:10;;;;;;;;;;;;;;;7.83;100.00;99485.50;4988448;28;19929;-80
2023/09/01 16:05:35;;;;;;;;;;;;;;;7.79;100.00;99484.75;4988065;28;19914;-82
2023/09/01 16:08:00;;;;;;;;;;;;;;;7.84;100.00;99483.72;4988480;28;20277;-80
2023/09/01 16:10:26;;;;;;;;;;;;;;;7.85;100.00;99482.78;4988352;28;19918;-80
2023/09/01 16:12:52;;;;;;;;;;;;;;;7.79;100.00;99482.09;4987349;28;19945;-81
2023/09/01 16:15:18;;;;;;;;;;;;;;;7.81;100.00;99480.28;4987813;28;19925;-80
2023/09/01 16:17:43;;;;;;;;;;;;;;;7.81;100.00;99480.28;4987380;28;20666;-86
2023/09/01 16:20:09;;;;;;;;;;;;;;;7.91;100.00;99479.94;4988226;28;19917;-81
2023/09/01 16:22:34;;;;;;;;;;;;;;;7.82;100.00;99482.00;4988290;28;20365;-89
2023/09/01 16:24:59;;;;;;;;;;;;;;;7.84;100.00;99479.31;4988893;28;20273;-85
2023/09/01 16:27:27;;;;;;;;;;;;;;;7.89;100.00;99476.50;4987692;28;19962;-83
2023/09/01 16:29:52;;;;;;;;;;;;;;;7.89;100.00;99479.16;4973040;28;19957;-83
2023/09/01 16:32:19;;;;;;;;;;;;;;;7.88;100.00;99474.78;4988169;28;20385;-82
2023/09/01 16:34:47;;;;;;;;;;;;;;;7.89;100.00;99479.16;4988708;28;19918;-84
2023/09/01 16:37:12;;;;;;;;;;;;;;;7.84;100.00;99475.81;4987786;28;19926;-80
2023/09/01 16:39:37;;;;;;;;;;;;;;;7.89;100.00;99487.06;4973205;28;19918;-80
2023/09/01 16:42:03;;;;;;;;;;;;;;;7.84;100.00;99483.72;4973601;28;19922;-83
2023/09/01 16:44:29;;;;;;;;;;;;;;;7.84;100.00;99484.59;4972608;28;20301;-80
2023/09/01 16:46:55;;;;;;;;;;;;;;;7.84;100.00;99481.09;4971638;28;19960;-80
2023/09/01 16:49:20;;;;;;;;;;;;;;;7.86;100.00;99476.63;4988156;28;20280;-80
2023/09/01 16:51:45;;;;;;;;;;;;;;;7.83;100.00;99477.56;4988066;28;19933;-80
2023/09/01 16:54:10;;;;;;;;;;;;;;;7.90;100.00;99486.16;4974137;28;19969;-80
2023/09/01 16:56:36;;;;;;;;;;;;;;;7.92;100.00;99490.44;4972156;28;20292;-81
2023/09/01 16:59:01;;;;;;;;;;;;;;;7.88;100.00;99483.56;4986191;28;19996;-81
2023/09/01 17:01:27;;;;;;;;;;;;;;;7.88;100.00;99493.25;4972267;28;19922;-81
2023/09/01 17:03:52;;;;;;;;;;;;;;;7.97;100.00;99498.19;4972595;28;19933;-81
2023/09/01 17:06:17;;;;;;;;;;;;;;;7.94;100.00;99498.28;4987953;28;19917;-82
2023/09/01 17:08:44;;;;;;;;;;;;;;;7.94;100.00;99504.44;4975124;28;20423;-81
2023/09/01 17:11:09;;;;;;;;;;;;;;;7.89;100.00;99505.53;4978221;28;19921;-80
2023/09/01 17:13:40;;;;;;;;;;;;;;;7.91;100.00;99507.16;4990676;28;19971;-81
2023/09/01 17:16:06;;;;;;;;;;;;;;;7.87;100.00;99502.09;4992705;28;20368;-83
2023/09/01 17:18:31;;;;;;;;;;;;;;;7.89;100.00;99502.88;4977078;28;19918;-84
2023/09/01 17:20:57;;;;;;;;;;;;;;;7.90;100.00;99501.97;4992338;28;19918;-79
2023/09/01 17:23:26;;;;;;;;;;;;;;;7.90;100.00;99505.47;4975792;28;19998;-84
2023/09/01 17:25:51;;;;;;;;;;;;;;;7.82;100.00;99510.16;4977895;28;19925;-83
2023/09/01 17:28:16;;;;;;;;;;;;;;;7.82;100.00;99511.00;4990619;28;19918;-80
2023/09/01 17:30:42;;;;;;;;;;;;;;;7.86;100.00;99513.53;4991356;28;19929;-81
2023/09/01 17:33:07;;;;;;;;;;;;;;;7.82;100.00;99508.38;4975396;28;20281;-84
2023/09/01 17:35:32;;;;;;;;;;;;;;;7.83;100.00;99514.50;4991233;28;19977;-83
2023/09/01 17:37:58;;;;;;;;;;;;;;;7.91;100.00;99516.88;4991184;28;19922;-80
2023/09/01 17:40:23;;;;;;;;;;;;;;;7.90;100.00;99505.47;4991433;28;19914;-84
2023/09/01 17:42:48;;;;;;;;;;;;;;;7.84;100.00;99521.50;4975801;28;20105;-84
2023/09/01 17:45:14;;;;;;;;;;;;;;;7.84;100.00;99510.97;4991475;28;19922;-83
2023/09/01 17:47:39;;;;;;;;;;;;;;;7.91;100.00;99520.34;4991175;28;20376;-83
2023/09/01 17:50:05;;;;;;;;;;;;;;;7.92;100.00;99529.16;4991304;28;19918;-81
2023/09/01 17:52:30;;;;;;;;;;;;;;;7.87;100.00;99524.03;4976972;28;19917;-88
2023/09/01 17:54:55;;;;;;;;;;;;;;;7.92;100.00;99529.16;4990709;28;19918;-84
2023/09/01 17:57:22;;;;;;;;;;;;;;;7.87;100.00;99526.69;4977076;28;19922;-83
2023/09/01 17:59:48;;;;;;;;;;;;;;;7.89;100.00;99524.00;4975061;28;19944;-83
2023/09/01 18:02:14;;;;;;;;;;;;;;;7.88;100.00;99522.25;4990556;28;20289;-82
2023/09/01 18:04:39;;;;;;;;;;;;;;;7.94;100.00;99527.31;4990364;28;19929;-81
2023/09/01 18:07:06;;;;;;;;;;;;;;;7.87;100.00;99531.09;4973947;28;19918;-82
2023/09/01 18:09:31;;;;;;;;;;;;;;;7.88;100.00;99535.44;4990746;28;20277;-83
2023/09/01 18:11:56;;;;;;;;;;;;;;;7.91;100.00;99537.97;4991157;28;19918;-84
2023/09/01 18:14:22;;;;;;;;;;;;;;;7.94;100.00;99543.16;4989816;28;20306;-86
2023/09/01 18:16:47;;;;;;;;;;;;;;;7.89;100.00;99548.59;4989855;28;19922;-83
2023/09/01 18:19:12;;;;;;;;;;;;;;;7.78;100.00;99543.69;4990195;28;19930;-82
2023/09/01 18:21:41;;;;;;;;;;;;;;;7.90;100.00;99552.97;4990258;28;19925;-84
2023/09/01 18:24:26;;;;;;;;;;;;;;;7.81;100.00;99551.50;4990598;28;20391;-82
2023/09/01 18:26:51;;;;;;;;;;;;;;;7.91;100.00;99553.81;4990309;28;19922;-81
2023/09/01 18:29:20;;;;;;;;;;;;;;;7.87;100.00;99552.22;4989011;28;19917;-86
2023/09/01 18:31:47;;;;;;;;;;;;;;;7.85;100.00;99561.94;4990090;28;19918;-86
2023/09/01 18:34:12;;;;;;;;;;;;;;;7.88;100.00;99570.63;4974767;28;19922;-82
2023/09/01 18:36:37;;;;;;;;;;;;;;;7.90;100.00;99563.50;4991297;28;19972;-85
2023/09/01 18:39:04;;;;;;;;;;;;;;;7.89;100.00;99567.06;4990331;28;20503;-82
2023/09/01 18:41:29;;;;;;;;;;;;;;;7.88;100.00;99565.34;4989773;28;19918;-85
2023/09/01 18:43:58;;;;;;;;;;;;;;;7.91;100.00;99574.91;4984271;28;20025;-84
2023/09/01 18:46:26;;;;;;;;;;;;;;;7.84;100.00;99573.41;4975048;28;19934;-82